Time;durP1;ratioP1;P1;durP2;ratioP2;P2;SDS_P1;SDS_P2;PMS_P1;PMS_P2;Temp;Humidity;BMP_temperature;BMP_pressure;BME280_temperature;BME280_humidity;BME280_pressure;Samples;Min_cycle;Max_cycle;Signal;HPM_P1;HPM_P2
2023/09/03 00:01:51;;;;;;;5.13;2.50;;;13.80;99.90;;;;;;4721354;30;20048;-74
2023/09/03 00:04:17;;;;;;;5.53;2.55;;;13.70;99.90;;;;;;4720982;30;20397;-74
2023/09/03 00:06:42;;;;;;;4.25;2.50;;;13.70;99.90;;;;;;4736634;30;20049;-74
2023/09/03 00:09:08;;;;;;;3.67;2.20;;;13.60;99.90;;;;;;4720980;30;20139;-74
2023/09/03 00:11:33;;;;;;;3.75;2.10;;;13.60;99.90;;;;;;4721025;30;20058;-74
2023/09/03 00:13:59;;;;;;;4.38;2.25;;;13.60;99.90;;;;;;4721212;30;20044;-74
2023/09/03 00:16:25;;;;;;;3.92;2.22;;;13.50;99.90;;;;;;4720621;30;20045;-74
2023/09/03 00:18:51;;;;;;;4.72;2.60;;;13.50;99.90;;;;;;4720773;30;20061;-74
2023/09/03 00:21:17;;;;;;;4.85;2.60;;;13.50;99.90;;;;;;4720726;30;20057;-74
2023/09/03 00:23:42;;;;;;;4.95;2.60;;;13.40;99.90;;;;;;4720655;30;20053;-74
2023/09/03 00:26:19;;;;;;;4.10;2.50;;;13.40;99.90;;;;;;4720620;30;20153;-74
2023/09/03 00:28:44;;;;;;;4.68;2.25;;;13.30;99.90;;;;;;4720717;30;20622;-74
2023/09/03 00:31:10;;;;;;;5.68;2.45;;;13.40;99.90;;;;;;4720911;30;20068;-74
2023/09/03 00:33:37;;;;;;;4.55;2.55;;;13.40;99.90;;;;;;4720452;30;20555;-74
2023/09/03 00:36:05;;;;;;;4.57;2.53;;;13.40;99.90;;;;;;4721167;30;20075;-74
2023/09/03 00:38:32;;;;;;;4.80;2.30;;;13.40;99.90;;;;;;4736273;30;20055;-74
2023/09/03 00:40:58;;;;;;;4.60;2.50;;;13.40;99.90;;;;;;4736157;30;20124;-74
2023/09/03 00:43:24;;;;;;;3.83;2.00;;;13.40;99.90;;;;;;4720495;30;20574;-74
2023/09/03 00:45:50;;;;;;;4.70;2.63;;;13.40;99.90;;;;;;4720367;30;20052;-74
2023/09/03 00:48:28;;;;;;;4.63;2.67;;;13.40;99.90;;;;;;4735927;30;20056;-74
2023/09/03 00:50:57;;;;;;;6.78;4.25;;;13.40;99.90;;;;;;4720508;30;20427;-74
2023/09/03 00:53:25;;;;;;;4.60;3.40;;;13.40;99.90;;;;;;4720494;30;20494;-74
2023/09/03 00:55:52;;;;;;;5.72;3.25;;;13.50;99.90;;;;;;4720169;30;20069;-74
2023/09/03 00:58:19;;;;;;;6.82;4.22;;;13.60;99.90;;;;;;4719928;30;20139;-74
2023/09/03 01:00:45;;;;;;;6.85;4.40;;;13.60;99.90;;;;;;4720254;30;20071;-74
2023/09/03 01:03:10;;;;;;;6.32;4.75;;;13.70;99.90;;;;;;4720146;30;20045;-74
2023/09/03 01:05:36;;;;;;;7.32;4.03;;;13.60;99.90;;;;;;4720019;30;20063;-74
2023/09/03 01:08:02;;;;;;;4.82;3.60;;;13.60;99.90;;;;;;4719855;30;20056;-74
2023/09/03 01:10:51;;;;;;;7.70;4.45;;;13.60;99.90;;;;;;4720235;30;20134;-74
2023/09/03 01:13:37;;;;;;;9.57;6.07;;;13.60;99.90;;;;;;4709435;30;20128;-74
2023/09/03 01:16:14;;;;;;;8.73;5.60;;;13.60;99.90;;;;;;4719982;30;20142;-74
2023/09/03 01:18:42;;;;;;;10.50;7.38;;;13.60;99.90;;;;;;4720211;30;20067;-74
2023/09/03 01:21:19;;;;;;;12.25;9.15;;;13.60;99.90;;;;;;4719947;30;20057;-74
2023/09/03 01:24:18;;;;;;;9.25;6.25;;;13.70;99.90;;;;;;4719762;30;20143;-74
2023/09/03 01:27:29;;;;;;;8.13;5.38;;;13.70;99.90;;;;;;4719344;30;20216;-74
2023/09/03 01:29:55;;;;;;;10.90;7.65;;;13.60;99.90;;;;;;4716380;30;20526;-74
2023/09/03 01:32:21;;;;;;;12.82;9.50;;;13.70;99.90;;;;;;4719591;30;20402;-74
2023/09/03 01:34:48;;;;;;;15.50;11.23;;;13.70;99.90;;;;;;4735411;30;20084;-74
2023/09/03 01:37:14;;;;;;;14.18;11.07;;;13.80;99.90;;;;;;4719668;30;20095;-74
2023/09/03 01:39:40;;;;;;;15.88;10.93;;;13.80;99.90;;;;;;4719393;30;20088;-74
2023/09/03 01:42:05;;;;;;;17.30;12.88;;;13.70;99.90;;;;;;4719689;30;20045;-74
2023/09/03 01:44:31;;;;;;;17.10;11.95;;;13.80;99.90;;;;;;4719434;30;20121;-74
2023/09/03 01:47:12;;;;;;;17.58;12.30;;;13.80;99.90;;;;;;4719529;30;20057;-74
2023/09/03 01:49:49;;;;;;;17.17;11.88;;;13.90;99.90;;;;;;4719728;30;20052;-74
2023/09/03 01:52:39;;;;;;;15.88;11.77;;;13.90;99.90;;;;;;4719540;30;20107;-74
2023/09/03 01:55:09;;;;;;;14.15;11.25;;;13.80;99.90;;;;;;4719491;30;20061;-74
2023/09/03 01:57:47;;;;;;;21.17;12.27;;;13.80;99.90;;;;;;4719316;30;20064;-74
2023/09/03 02:00:16;;;;;;;15.27;11.68;;;13.80;99.90;;;;;;4719810;30;20111;-74
2023/09/03 02:02:44;;;;;;;17.50;12.15;;;13.80;99.90;;;;;;4719444;30;20049;-74
2023/09/03 02:05:11;;;;;;;15.75;11.43;;;13.80;99.90;;;;;;4719854;30;20084;-74
2023/09/03 02:07:37;;;;;;;15.68;11.50;;;13.80;99.90;;;;;;4735163;30;20099;-74
2023/09/03 02:10:03;;;;;;;14.98;11.80;;;13.70;99.90;;;;;;4719368;30;20463;-74
2023/09/03 02:12:29;;;;;;;12.90;10.07;;;13.80;99.90;;;;;;4719431;30;20095;-74
2023/09/03 02:14:55;;;;;;;14.23;10.80;;;13.70;99.90;;;;;;4735008;30;20076;-74
2023/09/03 02:17:21;;;;;;;12.02;9.80;;;13.70;99.90;;;;;;4719349;30;20136;-74
2023/09/03 02:19:51;;;;;;;15.20;10.13;;;13.70;99.90;;;;;;4719420;30;20141;-74
2023/09/03 02:22:17;;;;;;;14.07;10.43;;;13.70;99.90;;;;;;4719224;30;20095;-74
2023/09/03 02:24:43;;;;;;;13.80;10.27;;;13.70;99.90;;;;;;4734943;30;20556;-74
2023/09/03 02:27:12;;;;;;;15.75;11.60;;;13.70;99.90;;;;;;4719282;30;20060;-74
2023/09/03 02:29:41;;;;;;;17.58;10.52;;;13.70;99.90;;;;;;4719011;30;20049;-74
2023/09/03 02:32:07;;;;;;;13.02;9.57;;;13.70;99.90;;;;;;4719409;30;20069;-74
2023/09/03 02:34:33;;;;;;;15.25;10.75;;;13.60;99.90;;;;;;4735004;30;20048;-74
2023/09/03 02:36:59;;;;;;;14.02;10.27;;;13.60;99.90;;;;;;4734855;30;20526;-74
2023/09/03 02:39:25;;;;;;;14.27;9.90;;;13.60;99.90;;;;;;4721758;30;20087;-74
2023/09/03 02:41:51;;;;;;;12.38;9.70;;;13.50;99.90;;;;;;4737936;30;20140;-74
2023/09/03 02:44:17;;;;;;;13.18;9.93;;;13.50;99.90;;;;;;4722684;30;20130;-74
2023/09/03 02:46:43;;;;;;;12.88;9.80;;;13.50;99.90;;;;;;4723063;30;20444;-74
2023/09/03 02:49:10;;;;;;;13.65;9.88;;;13.40;99.90;;;;;;4722211;30;20052;-74
2023/09/03 02:51:37;;;;;;;12.55;10.18;;;13.40;99.90;;;;;;4722464;30;20139;-74
2023/09/03 02:54:03;;;;;;;16.40;11.27;;;13.40;99.90;;;;;;4722139;30;20486;-74
2023/09/03 02:56:29;;;;;;;12.85;10.02;;;13.40;99.90;;;;;;4722232;30;20090;-74
2023/09/03 02:59:02;;;;;;;14.02;10.65;;;13.40;99.90;;;;;;4737933;30;20057;-74
2023/09/03 03:01:28;;;;;;;15.48;10.55;;;13.40;99.90;;;;;;4722261;30;20063;-74
2023/09/03 03:03:54;;;;;;;14.77;10.52;;;13.30;99.90;;;;;;4722001;30;20174;-74
2023/09/03 03:06:19;;;;;;;13.27;9.52;;;13.30;99.90;;;;;;4722284;30;20056;-74
2023/09/03 03:08:45;;;;;;;10.35;8.43;;;13.30;99.90;;;;;;4722256;30;20068;-74
2023/09/03 03:11:12;;;;;;;13.20;9.38;;;13.30;99.90;;;;;;4722021;30;20114;-74
2023/09/03 03:13:38;;;;;;;12.93;10.40;;;13.30;99.90;;;;;;4737499;30;20060;-74
2023/09/03 03:16:06;;;;;;;13.30;9.75;;;13.40;99.90;;;;;;4737730;30;20060;-74
2023/09/03 03:18:33;;;;;;;13.77;9.90;;;13.30;99.90;;;;;;4737516;30;20494;-74
2023/09/03 03:21:09;;;;;;;11.82;8.45;;;13.40;99.90;;;;;;4721727;30;20053;-74
2023/09/03 03:23:36;;;;;;;13.85;9.02;;;13.40;99.90;;;;;;4721780;30;20106;-74
2023/09/03 03:26:02;;;;;;;13.13;8.73;;;13.30;99.90;;;;;;4721646;30;20075;-74
2023/09/03 03:28:34;;;;;;;12.32;8.48;;;13.40;99.90;;;;;;4721562;30;20161;-74
2023/09/03 03:31:11;;;;;;;13.80;9.13;;;13.30;99.90;;;;;;4737461;30;20036;-74
2023/09/03 03:33:41;;;;;;;14.98;9.43;;;13.30;99.90;;;;;;4721777;30;20491;-74
2023/09/03 03:36:10;;;;;;;12.90;8.90;;;13.30;99.90;;;;;;4721615;30;20140;-74
2023/09/03 03:38:39;;;;;;;12.88;9.30;;;13.30;99.90;;;;;;4723289;30;20067;-74
2023/09/03 03:41:11;;;;;;;9.98;7.80;;;13.20;99.90;;;;;;4737156;30;20072;-74
2023/09/03 03:43:39;;;;;;;11.20;9.07;;;13.20;99.90;;;;;;4721561;30;20080;-74
2023/09/03 03:46:06;;;;;;;14.07;9.20;;;13.20;99.90;;;;;;4721336;30;20068;-74
2023/09/03 03:48:32;;;;;;;11.10;7.78;;;13.20;99.90;;;;;;4721644;30;20092;-74
2023/09/03 03:50:58;;;;;;;12.60;8.93;;;13.20;99.90;;;;;;4736468;30;20067;-74
2023/09/03 03:53:26;;;;;;;13.23;8.45;;;13.20;99.90;;;;;;4721052;30;20053;-74
2023/09/03 03:56:00;;;;;;;11.70;8.55;;;13.20;99.90;;;;;;4721376;30;20198;-74
2023/09/03 03:58:29;;;;;;;14.05;9.15;;;13.30;99.90;;;;;;4721145;30;20057;-74
2023/09/03 04:01:09;;;;;;;12.45;8.63;;;13.20;99.90;;;;;;4721188;30;20478;-74
2023/09/03 04:03:35;;;;;;;12.20;7.90;;;13.20;99.90;;;;;;4721428;30;20206;-74
2023/09/03 04:06:01;;;;;;;11.73;8.73;;;13.20;99.90;;;;;;4720876;30;20458;-74
2023/09/03 04:08:29;;;;;;;12.43;8.85;;;13.20;99.90;;;;;;4721014;30;20060;-74
2023/09/03 04:11:00;;;;;;;12.90;8.75;;;13.20;99.90;;;;;;4720914;30;20063;-74
2023/09/03 04:13:26;;;;;;;12.80;8.65;;;13.20;99.90;;;;;;4720963;30;20551;-74
2023/09/03 04:15:53;;;;;;;11.60;8.30;;;13.20;99.90;;;;;;4721093;30;20053;-74
2023/09/03 04:18:18;;;;;;;11.10;8.68;;;13.20;99.90;;;;;;4720889;30;20083;-74
2023/09/03 04:20:44;;;;;;;13.13;8.63;;;13.20;99.90;;;;;;4720997;30;20437;-74
2023/09/03 04:23:10;;;;;;;12.13;9.35;;;13.20;99.90;;;;;;4720777;30;20139;-74
2023/09/03 04:25:37;;;;;;;15.40;10.35;;;13.30;99.90;;;;;;4720729;30;20044;-74
2023/09/03 04:28:02;;;;;;;12.70;9.27;;;13.30;99.90;;;;;;4720742;30;20461;-74
2023/09/03 04:30:28;;;;;;;15.07;9.38;;;13.30;99.90;;;;;;4736353;30;20048;-74
2023/09/03 04:32:54;;;;;;;15.18;9.52;;;13.30;99.90;;;;;;4720749;30;20048;-74
2023/09/03 04:35:19;;;;;;;15.45;10.95;;;13.40;99.90;;;;;;4720724;30;20049;-74
2023/09/03 04:37:45;;;;;;;14.00;9.25;;;13.30;99.90;;;;;;4720469;30;20472;-74
2023/09/03 04:40:11;;;;;;;14.27;8.90;;;13.40;99.90;;;;;;4720474;30;20045;-74
2023/09/03 04:42:38;;;;;;;12.07;9.32;;;13.40;99.90;;;;;;4720692;30;20118;-74
2023/09/03 04:45:06;;;;;;;13.10;9.13;;;13.40;99.90;;;;;;4720423;30;20065;-74
2023/09/03 04:47:32;;;;;;;12.65;9.05;;;13.30;99.90;;;;;;4719816;30;20067;-74
2023/09/03 04:49:58;;;;;;;10.90;8.07;;;13.30;99.90;;;;;;4720053;30;20139;-74
2023/09/03 04:52:23;;;;;;;12.60;9.32;;;13.30;99.90;;;;;;4720505;30;20059;-74
2023/09/03 04:54:49;;;;;;;12.45;9.23;;;13.40;99.90;;;;;;4720157;30;20457;-74
2023/09/03 04:57:16;;;;;;;13.60;8.32;;;13.30;99.90;;;;;;4719679;30;20079;-74
2023/09/03 04:59:41;;;;;;;11.43;8.68;;;13.30;99.90;;;;;;4719905;30;20493;-74
2023/09/03 05:02:07;;;;;;;11.30;8.23;;;13.40;99.90;;;;;;4719351;30;20088;-74
2023/09/03 05:04:33;;;;;;;13.05;8.75;;;13.40;99.90;;;;;;4720209;30;20498;-74
2023/09/03 05:06:59;;;;;;;10.98;8.27;;;13.40;99.90;;;;;;4720114;30;20118;-74
2023/09/03 05:09:24;;;;;;;13.02;9.32;;;13.40;99.90;;;;;;4720137;30;20434;-74
2023/09/03 05:11:50;;;;;;;12.77;8.55;;;13.40;99.90;;;;;;4719787;30;20467;-74
2023/09/03 05:14:16;;;;;;;13.63;9.20;;;13.40;99.90;;;;;;4719964;30;20452;-74
2023/09/03 05:16:42;;;;;;;12.50;8.30;;;13.40;99.90;;;;;;4719792;30;20490;-74
2023/09/03 05:19:07;;;;;;;11.50;7.07;;;13.40;99.90;;;;;;4719688;30;20110;-74
2023/09/03 05:21:39;;;;;;;14.10;8.90;;;13.50;99.90;;;;;;4719648;30;20053;-74
2023/09/03 05:24:05;;;;;;;13.63;8.35;;;13.50;99.90;;;;;;4719692;30;20064;-74
2023/09/03 05:26:31;;;;;;;11.65;8.38;;;13.50;99.90;;;;;;4735310;30;20061;-74
2023/09/03 05:28:57;;;;;;;14.25;9.95;;;13.50;99.90;;;;;;4719810;30;20058;-74
2023/09/03 05:31:23;;;;;;;16.75;9.82;;;13.60;99.90;;;;;;4719627;30;20057;-74
2023/09/03 05:33:48;;;;;;;13.55;9.45;;;13.60;99.90;;;;;;4735613;30;20117;-74
2023/09/03 05:36:14;;;;;;;13.82;9.13;;;13.70;99.90;;;;;;4719621;30;20052;-74
2023/09/03 05:38:42;;;;;;;12.32;10.05;;;13.70;99.90;;;;;;4719590;30;20048;-74
2023/09/03 05:41:09;;;;;;;12.93;8.50;;;13.80;99.90;;;;;;4719716;30;20060;-74
2023/09/03 05:43:36;;;;;;;12.02;8.27;;;13.80;99.90;;;;;;4735225;30;20144;-74
2023/09/03 05:46:02;;;;;;;13.90;9.90;;;13.80;99.90;;;;;;4719758;30;20049;-74
2023/09/03 05:48:28;;;;;;;16.92;11.18;;;13.90;99.90;;;;;;4719740;30;20071;-74
2023/09/03 05:51:03;;;;;;;14.75;10.40;;;13.90;99.90;;;;;;4735433;30;20052;-74
2023/09/03 05:53:30;;;;;;;16.02;10.45;;;14.00;99.90;;;;;;4719665;30;20056;-74
2023/09/03 05:56:30;;;;;;;18.70;10.98;;;14.00;99.90;;;;;;4719403;30;20048;-74
2023/09/03 05:59:02;;;;;;;12.48;9.10;;;14.00;99.90;;;;;;4691238;30;20067;-74
2023/09/03 06:01:28;;;;;;;14.30;11.00;;;14.10;99.90;;;;;;4719368;30;20056;-74
2023/09/03 06:03:53;;;;;;;15.98;11.43;;;14.10;99.90;;;;;;4719634;30;20102;-74
2023/09/03 06:06:19;;;;;;;18.52;11.57;;;14.20;99.90;;;;;;4719356;30;20560;-74
2023/09/03 06:08:45;;;;;;;17.33;11.18;;;14.30;99.90;;;;;;4735252;30;20056;-74
2023/09/03 06:11:10;;;;;;;14.55;10.82;;;14.30;99.90;;;;;;4719349;30;20057;-74
2023/09/03 06:13:36;;;;;;;13.95;10.20;;;14.40;99.90;;;;;;4720725;30;20045;-74
2023/09/03 06:16:04;;;;;;;13.55;9.73;;;14.40;99.90;;;;;;4722634;30;20057;-74
2023/09/03 06:18:30;;;;;;;15.18;11.35;;;14.40;99.90;;;;;;4722642;30;20099;-73
2023/09/03 06:20:56;;;;;;;15.98;10.48;;;14.50;99.90;;;;;;4722535;30;20045;-73
2023/09/03 06:23:21;;;;;;;15.30;10.68;;;14.60;99.90;;;;;;4722806;30;20095;-73
2023/09/03 06:25:48;;;;;;;14.88;10.95;;;14.70;99.90;;;;;;4737876;30;20052;-76
2023/09/03 06:28:14;;;;;;;18.02;11.27;;;14.80;99.90;;;;;;4729650;30;20057;-73
2023/09/03 06:30:40;;;;;;;13.25;9.43;;;14.80;99.90;;;;;;4739761;30;20068;-72
2023/09/03 06:33:06;;;;;;;11.57;8.88;;;14.90;99.90;;;;;;4755862;30;20135;-74
2023/09/03 06:35:32;;;;;;;11.68;9.10;;;15.00;99.90;;;;;;4739670;30;20131;-74
2023/09/03 06:37:58;;;;;;;12.60;9.88;;;15.10;99.90;;;;;;4739042;30;20105;-73
2023/09/03 06:40:24;;;;;;;14.70;10.35;;;15.20;99.90;;;;;;4739690;30;20063;-74
2023/09/03 06:42:50;;;;;;;14.27;10.43;;;15.40;99.90;;;;;;4755447;30;20494;-73
2023/09/03 06:45:16;;;;;;;16.60;10.93;;;15.50;99.90;;;;;;4739886;30;20064;-74
2023/09/03 06:47:41;;;;;;;17.30;11.07;;;15.70;99.90;;;;;;4755462;30;20059;-74
2023/09/03 06:50:07;;;;;;;13.07;9.15;;;15.80;99.90;;;;;;4739574;30;20063;-74
2023/09/03 06:52:34;;;;;;;13.50;8.77;;;15.90;99.90;;;;;;4739571;30;20530;-73
2023/09/03 06:55:01;;;;;;;14.13;9.18;;;16.00;99.90;;;;;;4739430;30;20056;-73
2023/09/03 06:57:26;;;;;;;16.13;10.13;;;16.10;99.90;;;;;;4739153;30;20064;-73
2023/09/03 06:59:52;;;;;;;13.45;9.75;;;16.20;99.90;;;;;;4755451;30;20063;-74
2023/09/03 07:02:17;;;;;;;14.90;9.35;;;16.30;99.90;;;;;;4739528;30;20060;-73
2023/09/03 07:04:43;;;;;;;12.80;10.60;;;16.40;99.90;;;;;;4739353;30;20485;-73
2023/09/03 07:07:09;;;;;;;12.82;8.93;;;16.40;99.90;;;;;;4739218;30;20508;-74
2023/09/03 07:09:35;;;;;;;12.00;8.73;;;16.40;99.90;;;;;;4739059;30;20048;-74
2023/09/03 07:12:04;;;;;;;13.52;9.38;;;16.50;99.90;;;;;;4739067;30;20142;-74
2023/09/03 07:14:34;;;;;;;12.40;9.45;;;16.50;99.90;;;;;;4739310;30;20056;-73
2023/09/03 07:17:01;;;;;;;12.88;9.38;;;16.50;99.90;;;;;;4739274;30;20048;-74
2023/09/03 07:19:27;;;;;;;11.20;8.02;;;16.50;99.90;;;;;;4739070;30;20067;-73
2023/09/03 07:21:53;;;;;;;12.95;8.27;;;16.50;99.90;;;;;;4738852;30;20056;-74
2023/09/03 07:24:19;;;;;;;12.23;8.80;;;16.50;99.90;;;;;;4738421;30;20051;-74
2023/09/03 07:26:44;;;;;;;12.07;9.05;;;16.50;99.90;;;;;;4738725;30;20545;-74
2023/09/03 07:29:10;;;;;;;12.77;8.40;;;16.50;99.90;;;;;;4739054;30;20059;-73
2023/09/03 07:31:40;;;;;;;12.77;8.93;;;16.60;99.90;;;;;;4754972;30;20504;-74
2023/09/03 07:34:10;;;;;;;15.38;9.52;;;16.70;99.90;;;;;;4738748;30;20063;-74
2023/09/03 07:36:36;;;;;;;12.20;9.23;;;16.70;99.90;;;;;;4738906;30;20083;-73
2023/09/03 07:39:05;;;;;;;12.73;9.27;;;16.80;99.90;;;;;;4738595;30;20052;-72
2023/09/03 07:41:32;;;;;;;13.90;9.25;;;16.80;99.90;;;;;;4738833;30;20052;-73
2023/09/03 07:43:58;;;;;;;12.80;9.52;;;16.90;99.90;;;;;;4738940;30;20122;-72
2023/09/03 07:46:25;;;;;;;13.90;9.77;;;17.10;99.90;;;;;;4738572;30;20494;-71
2023/09/03 07:48:50;;;;;;;16.00;9.32;;;17.20;99.90;;;;;;4738672;30;20139;-72
2023/09/03 07:51:17;;;;;;;13.85;8.95;;;17.30;99.90;;;;;;4754624;30;20553;-72
2023/09/03 07:53:43;;;;;;;15.07;8.52;;;17.30;99.90;;;;;;4738708;30;20056;-72
2023/09/03 07:56:08;;;;;;;11.15;8.18;;;17.40;99.90;;;;;;4738130;30;20487;-72
2023/09/03 07:58:36;;;;;;;12.13;7.72;;;17.30;99.90;;;;;;4738394;30;20056;-72
2023/09/03 08:01:01;;;;;;;11.57;7.90;;;17.40;99.90;;;;;;4754015;30;20052;-72
2023/09/03 08:03:34;;;;;;;10.82;7.80;;;17.40;99.90;;;;;;4738483;30;20048;-73
2023/09/03 08:06:01;;;;;;;10.43;7.97;;;17.40;99.90;;;;;;4738292;30;20056;-74
2023/09/03 08:08:31;;;;;;;12.00;8.10;;;17.50;99.90;;;;;;4738131;30;20060;-74
2023/09/03 08:10:59;;;;;;;9.55;7.30;;;17.60;99.90;;;;;;4737694;30;20122;-74
2023/09/03 08:13:25;;;;;;;12.45;7.30;;;17.70;99.90;;;;;;4738475;30;20060;-73
2023/09/03 08:15:51;;;;;;;12.55;6.30;;;17.80;99.90;;;;;;4737960;30;20131;-72
2023/09/03 08:18:17;;;;;;;10.43;6.30;;;17.80;99.90;;;;;;4754105;30;20056;-72
2023/09/03 08:20:43;;;;;;;9.00;5.70;;;17.90;99.90;;;;;;4753916;30;20052;-74
2023/09/03 08:23:13;;;;;;;11.07;6.25;;;18.00;99.90;;;;;;4737907;30;20559;-73
2023/09/03 08:25:39;;;;;;;10.18;6.03;;;18.10;99.90;;;;;;4737925;30;20080;-73
2023/09/03 08:28:07;;;;;;;10.15;6.53;;;18.20;99.90;;;;;;4737666;30;20094;-73
2023/09/03 08:30:33;;;;;;;8.15;6.53;;;18.20;99.90;;;;;;4737586;30;20091;-74
2023/09/03 08:32:58;;;;;;;11.57;6.70;;;18.30;99.90;;;;;;4737744;30;20083;-73
2023/09/03 08:35:24;;;;;;;9.73;6.43;;;18.30;99.90;;;;;;4753560;30;20055;-74
2023/09/03 08:37:50;;;;;;;10.80;6.53;;;18.50;99.90;;;;;;4737345;30;20059;-73
2023/09/03 08:40:18;;;;;;;11.40;5.60;;;18.60;99.90;;;;;;4737526;30;20080;-74
2023/09/03 08:42:46;;;;;;;7.53;4.97;;;18.70;99.90;;;;;;4737680;30;20070;-73
2023/09/03 08:45:12;;;;;;;10.00;5.57;;;18.70;99.90;;;;;;4737748;30;20052;-74
2023/09/03 08:47:40;;;;;;;8.68;5.05;;;18.80;99.90;;;;;;4737248;30;20394;-74
2023/09/03 08:50:10;;;;;;;8.95;4.68;;;18.90;99.90;;;;;;4737538;30;20069;-74
2023/09/03 08:52:37;;;;;;;7.63;3.72;;;19.00;99.90;;;;;;4753396;30;20060;-74
2023/09/03 08:55:05;;;;;;;10.98;5.45;;;19.00;99.90;;;;;;4753173;30;20056;-74
2023/09/03 08:57:34;;;;;;;6.45;4.47;;;19.00;99.90;;;;;;4752963;30;20465;-75
2023/09/03 09:00:07;;;;;;;8.98;4.20;;;19.10;99.90;;;;;;4736998;30;20052;-74
2023/09/03 09:02:36;;;;;;;8.75;5.03;;;19.10;99.90;;;;;;4753194;30;20044;-72
2023/09/03 09:05:07;;;;;;;7.30;4.60;;;19.10;99.90;;;;;;4752962;30;20409;-73
2023/09/03 09:07:33;;;;;;;8.63;4.70;;;19.10;99.90;;;;;;4736678;30;20068;-73
2023/09/03 09:10:08;;;;;;;9.05;4.75;;;19.20;99.90;;;;;;4737081;30;20056;-73
2023/09/03 09:12:53;;;;;;;8.23;4.32;;;19.30;99.90;;;;;;4737072;30;20101;-73
2023/09/03 09:15:19;;;;;;;8.07;5.22;;;19.30;99.90;;;;;;4737309;30;20065;-73
2023/09/03 09:17:45;;;;;;;11.23;4.75;;;19.40;99.90;;;;;;4736943;30;20168;-73
2023/09/03 09:20:12;;;;;;;11.05;5.50;;;19.50;99.90;;;;;;4736773;30;20080;-73
2023/09/03 09:22:50;;;;;;;7.20;4.65;;;19.50;99.90;;;;;;4736836;30;20133;-73
2023/09/03 09:25:18;;;;;;;8.77;4.15;;;19.60;99.90;;;;;;4737066;30;20052;-73
2023/09/03 09:27:44;;;;;;;7.10;4.72;;;19.60;99.90;;;;;;4736774;30;20405;-73
2023/09/03 09:30:15;;;;;;;7.63;5.28;;;19.80;99.90;;;;;;4736807;30;20060;-73
2023/09/03 09:32:42;;;;;;;6.47;4.40;;;19.80;99.90;;;;;;4736872;30;20087;-73
2023/09/03 09:35:23;;;;;;;7.82;3.88;;;19.90;99.90;;;;;;4736850;30;20550;-72
2023/09/03 09:37:48;;;;;;;8.05;3.20;;;19.90;99.90;;;;;;4736761;30;20417;-72
2023/09/03 09:40:28;;;;;;;6.07;3.67;;;19.80;99.90;;;;;;4736983;30;20489;-73
2023/09/03 09:42:57;;;;;;;7.72;2.75;;;19.80;99.90;;;;;;4736756;30;20501;-73
2023/09/03 09:45:23;;;;;;;6.97;2.72;;;19.80;99.90;;;;;;4736682;30;20493;-72
2023/09/03 09:48:04;;;;;;;7.25;3.70;;;20.00;99.90;;;;;;4736114;30;20056;-76
2023/09/03 09:50:34;;;;;;;9.95;3.15;;;20.00;99.90;;;;;;4752512;30;20512;-75
2023/09/03 09:53:00;;;;;;;5.70;2.60;;;20.20;99.90;;;;;;4736755;30;20098;-74
2023/09/03 09:55:31;;;;;;;5.43;3.70;;;20.20;99.90;;;;;;4736846;30;20060;-73
2023/09/03 09:58:00;;;;;;;7.43;3.80;;;20.20;99.90;;;;;;4736488;30;20064;-74
2023/09/03 10:00:38;;;;;;;4.72;3.38;;;20.30;99.90;;;;;;4736852;30;20147;-74
2023/09/03 10:03:05;;;;;;;5.53;3.08;;;20.40;99.90;;;;;;4737108;30;20478;-73
2023/09/03 10:05:31;;;;;;;5.07;2.70;;;20.50;99.90;;;;;;4752392;30;20079;-73
2023/09/03 10:07:59;;;;;;;6.68;3.15;;;20.50;99.90;;;;;;4736465;30;20414;-73
2023/09/03 10:10:24;;;;;;;4.65;2.40;;;20.50;99.90;;;;;;4736446;30;20101;-74
2023/09/03 10:12:50;;;;;;;6.28;3.45;;;20.60;99.90;;;;;;4752484;30;20052;-73
2023/09/03 10:15:16;;;;;;;7.20;3.42;;;20.70;99.90;;;;;;4736294;30;20060;-74
2023/09/03 10:17:49;;;;;;;8.50;4.40;;;20.80;99.90;;;;;;4736644;30;20056;-74
2023/09/03 10:20:16;;;;;;;6.90;3.38;;;20.80;99.90;;;;;;4736425;30;20060;-74
2023/09/03 10:22:45;;;;;;;5.53;3.83;;;20.90;99.90;;;;;;4752399;30;20048;-74
2023/09/03 10:25:33;;;;;;;6.47;4.38;;;21.00;99.90;;;;;;4736279;30;20056;-73
2023/09/03 10:28:04;;;;;;;9.88;4.57;;;21.20;99.90;;;;;;4736453;30;20496;-74
2023/09/03 10:30:34;;;;;;;7.70;4.18;;;21.30;99.90;;;;;;4752172;30;20509;-73
2023/09/03 10:33:01;;;;;;;4.72;3.40;;;21.30;99.90;;;;;;4752191;30;20094;-74
2023/09/03 10:35:26;;;;;;;4.53;3.00;;;21.30;99.90;;;;;;4736356;30;20056;-73
2023/09/03 10:37:52;;;;;;;6.15;2.80;;;21.20;99.90;;;;;;4752260;30;20060;-73
2023/09/03 10:40:22;;;;;;;6.18;2.50;;;21.30;99.90;;;;;;4736328;30;20060;-73
2023/09/03 10:42:52;;;;;;;6.05;2.40;;;21.40;99.90;;;;;;4736492;30;20071;-74
2023/09/03 10:45:18;;;;;;;6.22;2.75;;;21.50;99.90;;;;;;4736246;30;20055;-74
2023/09/03 10:47:56;;;;;;;3.47;2.28;;;21.60;99.90;;;;;;4736119;30;20147;-74
2023/09/03 10:50:49;;;;;;;4.80;2.40;;;21.60;99.90;;;;;;4736178;30;20052;-75
2023/09/03 10:53:36;;;;;;;5.78;2.17;;;21.40;99.90;;;;;;4736579;30;20059;-74
2023/09/03 10:56:19;;;;;;;4.28;2.00;;;21.40;99.90;;;;;;4736367;30;20099;-73
2023/09/03 10:58:54;;;;;;;;;;;21.40;99.90;;;;;;4737006;30;20052;-74
2023/09/03 11:01:26;;;;;;;5.45;2.78;;;21.30;99.90;;;;;;4739547;30;19932;-74
2023/09/03 11:03:53;;;;;;;5.50;2.20;;;21.40;99.90;;;;;;4739768;30;20071;-73
2023/09/03 11:06:23;;;;;;;3.78;2.15;;;21.40;99.90;;;;;;4739258;30;20489;-73
2023/09/03 11:09:12;;;;;;;4.13;1.80;;;21.40;99.90;;;;;;4739343;30;20468;-73
2023/09/03 11:11:38;;;;;;;4.95;1.83;;;21.50;99.90;;;;;;4739501;30;20052;-74
2023/09/03 11:14:10;;;;;;;5.13;1.85;;;21.60;99.90;;;;;;4739274;30;20106;-73
2023/09/03 11:16:37;;;;;;;3.90;1.75;;;21.60;99.90;;;;;;4739299;30;20048;-74
2023/09/03 11:19:07;;;;;;;4.25;2.00;;;21.60;99.90;;;;;;4739171;30;20079;-74
2023/09/03 11:21:33;;;;;;;5.00;1.85;;;21.50;99.90;;;;;;4755046;30;20429;-74
2023/09/03 11:24:03;;;;;;;10.82;2.20;;;21.60;99.90;;;;;;4739402;30;20063;-74
2023/09/03 11:26:29;;;;;;;5.20;2.08;;;21.60;99.90;;;;;;4738940;30;20082;-74
2023/09/03 11:28:56;;;;;;;5.78;2.05;;;21.70;99.90;;;;;;4738972;30;20048;-74
2023/09/03 11:31:23;;;;;;;4.35;2.10;;;21.60;99.90;;;;;;4738920;30;20511;-74
2023/09/03 11:33:50;;;;;;;5.00;2.10;;;21.80;99.90;;;;;;4739002;30;20055;-74
2023/09/03 11:36:21;;;;;;;3.80;2.00;;;22.00;99.90;;;;;;4739139;30;20060;-74
2023/09/03 11:38:48;;;;;;;3.15;2.00;;;21.90;99.90;;;;;;4754830;30;20528;-74
2023/09/03 11:41:17;;;;;;;3.97;1.92;;;22.00;99.90;;;;;;4754893;30;20096;-73
2023/09/03 11:43:42;;;;;;;7.10;2.47;;;21.70;99.90;;;;;;4738736;30;20123;-74
2023/09/03 11:46:13;;;;;;;3.42;2.13;;;21.70;99.90;;;;;;4738621;30;20127;-73
2023/09/03 11:48:40;;;;;;;3.63;1.90;;;21.70;99.90;;;;;;4738672;30;20168;-74
2023/09/03 11:51:06;;;;;;;4.38;2.10;;;21.70;99.90;;;;;;4754695;30;20052;-73
2023/09/03 11:53:40;;;;;;;4.63;1.98;;;21.70;99.90;;;;;;4738767;30;20052;-74
2023/09/03 11:56:08;;;;;;;4.75;2.20;;;21.60;99.90;;;;;;4738543;30;20513;-74
2023/09/03 11:58:34;;;;;;;5.18;2.20;;;21.80;99.90;;;;;;4738450;30;20060;-74
2023/09/03 12:01:00;;;;;;;5.68;2.60;;;21.90;99.90;;;;;;4754443;30;20074;-74
2023/09/03 12:03:25;;;;;;;4.15;2.20;;;21.90;99.90;;;;;;4754467;30;20060;-74
2023/09/03 12:05:51;;;;;;;6.50;2.03;;;21.90;99.90;;;;;;4738427;30;20105;-73
2023/09/03 12:08:18;;;;;;;4.82;2.90;;;21.90;99.90;;;;;;4738247;30;20149;-73
2023/09/03 12:10:50;;;;;;;6.13;2.28;;;22.10;99.90;;;;;;4737769;30;20088;-74
2023/09/03 12:13:39;;;;;;;4.43;2.10;;;22.30;99.90;;;;;;4738262;30;20060;-74
2023/09/03 12:16:10;;;;;;;5.15;2.10;;;22.30;99.90;;;;;;4738419;30;20105;-74
2023/09/03 12:18:37;;;;;;;3.58;2.08;;;22.20;99.90;;;;;;4738589;30;20052;-73
2023/09/03 12:21:07;;;;;;;6.88;2.28;;;22.30;99.90;;;;;;4738146;30;20497;-73
2023/09/03 12:23:35;;;;;;;3.33;2.10;;;22.40;99.90;;;;;;4754188;30;20131;-74
2023/09/03 12:26:01;;;;;;;5.45;2.15;;;22.60;99.90;;;;;;4754119;30;20083;-74
2023/09/03 12:28:36;;;;;;;4.57;2.17;;;22.50;99.90;;;;;;4738012;30;20067;-74
2023/09/03 12:31:04;;;;;;;3.38;2.25;;;22.40;99.90;;;;;;4737961;30;20382;-74
2023/09/03 12:33:33;;;;;;;5.57;2.45;;;22.50;99.90;;;;;;4738309;30;20550;-74
2023/09/03 12:36:12;;;;;;;2.72;1.52;;;22.70;99.90;;;;;;4737864;30;20128;-74
2023/09/03 12:38:59;;;;;;;5.60;2.03;;;22.60;99.90;;;;;;4737762;30;20059;-74
2023/09/03 12:41:31;;;;;;;4.88;2.10;;;22.70;99.90;;;;;;4737810;30;20052;-74
2023/09/03 12:44:10;;;;;;;6.35;1.80;;;22.80;99.90;;;;;;4737968;30;20071;-74
2023/09/03 12:46:36;;;;;;;5.57;2.03;;;22.60;99.90;;;;;;4753847;30;20055;-74
2023/09/03 12:49:02;;;;;;;6.20;2.50;;;22.50;99.90;;;;;;4737596;30;20405;-74